createdAt,value
2023-01-07T00:00:14.304Z,99763.66
2023-01-07T00:02:43.941Z,99760.50
2023-01-07T00:05:13.678Z,99753.91
2023-01-07T00:07:43.218Z,99753.47
2023-01-07T00:10:12.926Z,99750.75
2023-01-07T00:12:42.464Z,99750.56
2023-01-07T00:15:14.751Z,99759.13
2023-01-07T00:17:44.280Z,99767.28
2023-01-07T00:20:14.181Z,99764.06
2023-01-07T00:22:43.699Z,99766.47
2023-01-07T00:25:13.278Z,99753.31
2023-01-07T00:27:42.804Z,99754.47
2023-01-07T00:30:16.135Z,99741.34
2023-01-07T00:32:59.779Z,99721.75
2023-01-07T00:35:29.364Z,99716.69
2023-01-07T00:37:58.992Z,99723.78
2023-01-07T00:40:28.707Z,99705.09
2023-01-07T00:43:01.619Z,99702.03
2023-01-07T00:45:36.770Z,99708.25
2023-01-07T00:48:07.596Z,99705.72
2023-01-07T00:50:38.828Z,99698.81
2023-01-07T00:53:08.950Z,99707.41
2023-01-07T00:55:38.508Z,99695.81
2023-01-07T00:58:08.328Z,99702.91
2023-01-07T01:00:40.690Z,99698.56
2023-01-07T01:03:11.181Z,99704.63
2023-01-07T01:05:41.388Z,99713.94
2023-01-07T01:08:14.157Z,99708.47
2023-01-07T01:10:43.758Z,99698.94
2023-01-07T01:13:18.028Z,99708.31
2023-01-07T01:15:53.334Z,99707.09
2023-01-07T01:18:22.932Z,99699.38
2023-01-07T01:20:52.525Z,99697.28
2023-01-07T01:23:22.078Z,99700.50
2023-01-07T01:25:51.782Z,99697.72
2023-01-07T01:28:21.305Z,99697.97
2023-01-07T01:31:00.243Z,99692.78
2023-01-07T01:33:34.716Z,99690.59
2023-01-07T01:36:08.062Z,99690.47
2023-01-07T01:38:37.621Z,99697.97
2023-01-07T01:41:07.453Z,99697.19
2023-01-07T01:43:42.074Z,99694.81
2023-01-07T01:46:19.708Z,99689.75
2023-01-07T01:48:54.821Z,99691.34
2023-01-07T01:51:29.559Z,99698.34
2023-01-07T01:53:59.375Z,99705.09
2023-01-07T01:56:32.764Z,99700.66
2023-01-07T01:59:05.986Z,99689.84
2023-01-07T02:01:39.802Z,99681.56
2023-01-07T02:04:16.551Z,99680.56
2023-01-07T02:06:53.231Z,99675.53
2023-01-07T02:09:23.341Z,99678.25
2023-01-07T02:12:00.523Z,99679.72
2023-01-07T02:14:44.539Z,99686.81
2023-01-07T02:17:26.592Z,99688.63
2023-01-07T02:20:22.187Z,99694.59
2023-01-07T02:23:23.890Z,99698.94
2023-01-07T02:26:26.561Z,99697.38
2023-01-07T02:29:19.981Z,99693.72
2023-01-07T02:32:31.735Z,99688.19
2023-01-07T02:35:11.624Z,99679.13
2023-01-07T02:37:50.488Z,99676.03
2023-01-07T02:40:25.749Z,99668.97
2023-01-07T02:43:06.873Z,99670.44
2023-01-07T02:45:43.952Z,99663.34
2023-01-07T02:48:17.009Z,99666.97
2023-01-07T02:50:49.161Z,99666.69
2023-01-07T02:53:22.281Z,99660.19
2023-01-07T02:56:01.745Z,99658.31
2023-01-07T02:59:03.630Z,99650.19
2023-01-07T03:02:03.295Z,99652.75
2023-01-07T03:04:53.979Z,99657.75
2023-01-07T03:07:40.303Z,99653.66
2023-01-07T03:10:17.723Z,99656.44
2023-01-07T03:12:52.759Z,99638.31
2023-01-07T03:15:29.316Z,99640.72
2023-01-07T03:18:05.029Z,99646.38
2023-01-07T03:20:38.337Z,99638.66
2023-01-07T03:23:14.435Z,99641.41
2023-01-07T03:25:49.104Z,99641.94
2023-01-07T03:28:21.882Z,99641.22
2023-01-07T03:30:53.666Z,99646.50
2023-01-07T03:33:29.406Z,99644.34
2023-01-07T03:36:02.658Z,99635.91
2023-01-07T03:38:37.316Z,99641.69
2023-01-07T03:41:07.815Z,99643.84
2023-01-07T03:43:34.847Z,99652.38
2023-01-07T03:46:04.678Z,99644.16
2023-01-07T03:48:34.395Z,99663.66
2023-01-07T03:51:03.944Z,99652.44
2023-01-07T03:53:36.395Z,99656.44
2023-01-07T03:56:06.441Z,99652.94
2023-01-07T03:58:36.035Z,99637.97
2023-01-07T04:01:05.934Z,99637.75
2023-01-07T04:03:36.208Z,99636.28
2023-01-07T04:06:06.251Z,99624.97
2023-01-07T04:08:39.247Z,99622.34
2023-01-07T04:11:08.844Z,99628.09
2023-01-07T04:13:40.280Z,99635.19
2023-01-07T04:16:11.290Z,99621.75
2023-01-07T04:18:40.946Z,99618.91
2023-01-07T04:21:10.588Z,99620.06
2023-01-07T04:23:42.682Z,99617.31
2023-01-07T04:26:13.164Z,99608.28
2023-01-07T04:28:44.015Z,99604.22
2023-01-07T04:31:13.880Z,99616.38
2023-01-07T04:33:44.143Z,99609.28
2023-01-07T04:36:14.412Z,99619.13
2023-01-07T04:38:46.902Z,99620.06
2023-01-07T04:41:16.672Z,99621.41
2023-01-07T04:43:46.229Z,99624.69
2023-01-07T04:46:15.841Z,99634.28
2023-01-07T04:48:45.405Z,99626.41
2023-01-07T04:51:15.293Z,99636.81
2023-01-07T04:53:47.423Z,99636.41
2023-01-07T04:56:17.756Z,99619.84
2023-01-07T04:58:49.076Z,99613.88
2023-01-07T05:01:18.797Z,99607.31
2023-01-07T05:03:48.642Z,99600.69
2023-01-07T05:06:19.048Z,99591.31
2023-01-07T05:08:51.455Z,99589.97
2023-01-07T05:11:22.030Z,99593.66
2023-01-07T05:13:54.685Z,99598.16
2023-01-07T05:16:27.030Z,99595.69
2023-01-07T05:18:58.335Z,99578.31
2023-01-07T05:21:28.883Z,99581.56
2023-01-07T05:24:01.092Z,99579.91
2023-01-07T05:26:35.922Z,99585.47
2023-01-07T05:29:06.336Z,99581.66
2023-01-07T05:31:36.163Z,99590.09
2023-01-07T05:34:06.408Z,99575.69
2023-01-07T05:36:36.077Z,99585.91
2023-01-07T05:39:09.631Z,99577.41
2023-01-07T05:41:39.249Z,99586.44
2023-01-07T05:44:09.938Z,99577.00
2023-01-07T05:46:39.502Z,99580.34
2023-01-07T05:49:09.378Z,99581.38
2023-01-07T05:51:38.974Z,99583.03
2023-01-07T05:54:11.286Z,99586.44
2023-01-07T05:56:40.915Z,99587.53
2023-01-07T05:59:10.526Z,99599.00
2023-01-07T06:01:40.093Z,99601.19
2023-01-07T06:04:09.985Z,99590.19
2023-01-07T06:06:39.533Z,99595.66
2023-01-07T06:09:11.637Z,99589.34
2023-01-07T06:11:41.203Z,99580.28
2023-01-07T06:14:10.819Z,99583.00
2023-01-07T06:16:40.353Z,99586.91
2023-01-07T06:19:09.890Z,99589.00
2023-01-07T06:21:39.436Z,99575.97
2023-01-07T06:24:13.473Z,99574.19
2023-01-07T06:26:43.002Z,99574.09
2023-01-07T06:29:12.982Z,99576.75
2023-01-07T06:31:42.520Z,99571.47
2023-01-07T06:34:12.231Z,99567.78
2023-01-07T06:36:41.794Z,99574.69
2023-01-07T06:39:13.983Z,99583.88
2023-01-07T06:41:43.517Z,99580.44
2023-01-07T06:44:13.119Z,99576.63
2023-01-07T06:46:42.696Z,99571.44
2023-01-07T06:49:12.443Z,99564.03
2023-01-07T06:51:42.062Z,99562.06
2023-01-07T06:54:14.408Z,99565.28
2023-01-07T06:56:43.941Z,99563.63
2023-01-07T06:59:13.972Z,99564.94
2023-01-07T07:01:46.259Z,99563.03
2023-01-07T07:04:16.474Z,99554.16
2023-01-07T07:06:46.022Z,99546.09
2023-01-07T07:09:18.181Z,99550.22
2023-01-07T07:11:48.174Z,99537.06
2023-01-07T07:14:17.910Z,99536.84
2023-01-07T07:16:49.566Z,99536.50
2023-01-07T07:19:19.128Z,99540.50
2023-01-07T07:21:50.025Z,99539.63
2023-01-07T07:24:22.289Z,99537.41
2023-01-07T07:26:52.463Z,99541.91
2023-01-07T07:29:23.411Z,99545.94
2023-01-07T07:31:53.381Z,99553.25
2023-01-07T07:34:22.995Z,99546.09
2023-01-07T07:36:52.748Z,99552.78
2023-01-07T07:39:25.051Z,99546.56
2023-01-07T07:41:54.820Z,99546.09
2023-01-07T07:44:25.390Z,99539.84
2023-01-07T07:46:54.961Z,99538.91
2023-01-07T07:49:24.581Z,99549.84
2023-01-07T07:51:54.175Z,99547.06
2023-01-07T07:54:28.210Z,99559.28
2023-01-07T07:56:58.488Z,99542.28
2023-01-07T07:59:28.163Z,99551.44
2023-01-07T08:01:57.788Z,99557.63
2023-01-07T08:04:28.880Z,99551.38
2023-01-07T08:06:58.625Z,99558.94
2023-01-07T08:09:30.817Z,99559.41
2023-01-07T08:12:00.685Z,99550.22
2023-01-07T08:14:30.278Z,99559.03
2023-01-07T08:16:59.867Z,99551.06
2023-01-07T08:19:29.394Z,99559.03
2023-01-07T08:21:59.348Z,99540.63
2023-01-07T08:24:31.492Z,99535.16
2023-01-07T08:27:01.403Z,99535.56
2023-01-07T08:29:31.039Z,99536.34
2023-01-07T08:32:00.759Z,99538.56
2023-01-07T08:34:30.650Z,99534.47
2023-01-07T08:37:00.366Z,99541.19
2023-01-07T08:39:32.597Z,99542.41
2023-01-07T08:42:02.157Z,99540.53
2023-01-07T08:44:32.569Z,99537.25
2023-01-07T08:47:02.770Z,99525.66
2023-01-07T08:49:32.499Z,99528.22
2023-01-07T08:52:02.152Z,99532.97
2023-01-07T08:54:34.414Z,99524.03
2023-01-07T08:57:03.945Z,99529.31
2023-01-07T08:59:33.516Z,99523.69
2023-01-07T09:02:03.178Z,99512.22
2023-01-07T09:04:32.962Z,99525.78
2023-01-07T09:07:02.625Z,99512.56
2023-01-07T09:09:34.814Z,99523.91
2023-01-07T09:12:04.482Z,99519.50
2023-01-07T09:14:34.347Z,99521.47
2023-01-07T09:17:03.891Z,99515.78
2023-01-07T09:19:33.464Z,99515.72
2023-01-07T09:22:03.106Z,99514.75
2023-01-07T09:24:35.469Z,99515.72
2023-01-07T09:27:05.100Z,99520.63
2023-01-07T09:29:34.716Z,99515.81
2023-01-07T09:32:04.616Z,99512.34
2023-01-07T09:34:34.584Z,99508.19
2023-01-07T09:37:04.141Z,99514.31
2023-01-07T09:39:36.308Z,99513.25
2023-01-07T09:42:11.405Z,99508.78
2023-01-07T09:44:59.973Z,99513.56
2023-01-07T09:47:33.783Z,99520.31
2023-01-07T09:50:07.343Z,99513.19
2023-01-07T09:52:42.341Z,99507.59
2023-01-07T09:55:21.022Z,99513.94
2023-01-07T09:57:51.061Z,99504.69
2023-01-07T10:00:24.333Z,99514.75
2023-01-07T10:03:06.319Z,99505.25
2023-01-07T10:05:43.439Z,99518.25
2023-01-07T10:08:31.688Z,99512.91
2023-01-07T10:11:12.038Z,99512.56
2023-01-07T10:13:57.130Z,99512.03
2023-01-07T10:16:34.016Z,99505.16
2023-01-07T10:19:10.973Z,99501.22
2023-01-07T10:21:44.620Z,99498.13
2023-01-07T10:24:21.993Z,99476.66
2023-01-07T10:26:57.809Z,99485.72
2023-01-07T10:29:34.622Z,99482.00
2023-01-07T10:32:15.387Z,99484.44
2023-01-07T10:34:47.807Z,99471.47
2023-01-07T10:37:33.103Z,99465.19
2023-01-07T10:40:25.660Z,99464.44
2023-01-07T10:43:04.421Z,99462.81
2023-01-07T10:45:52.472Z,99461.47
2023-01-07T10:48:37.898Z,99454.00
2023-01-07T10:51:23.663Z,99441.88
2023-01-07T10:54:03.973Z,99445.53
2023-01-07T10:56:37.963Z,99443.94
2023-01-07T10:59:16.639Z,99434.72
2023-01-07T11:01:52.019Z,99435.84
2023-01-07T11:04:22.035Z,99423.00
2023-01-07T11:06:58.562Z,99426.47
2023-01-07T11:09:33.164Z,99409.66
2023-01-07T11:12:12.674Z,99408.16
2023-01-07T11:14:45.860Z,99396.53
2023-01-07T11:17:25.692Z,99396.16
2023-01-07T11:19:55.302Z,99393.94
2023-01-07T11:22:33.571Z,99384.91
2023-01-07T11:25:04.704Z,99388.69
2023-01-07T11:27:37.055Z,99382.13
2023-01-07T11:30:22.500Z,99373.28
2023-01-07T11:32:59.031Z,99374.38
2023-01-07T11:35:30.747Z,99369.81
2023-01-07T11:38:02.269Z,99371.16
2023-01-07T11:40:35.714Z,99365.31
2023-01-07T11:43:23.036Z,99356.53
2023-01-07T11:46:19.264Z,99362.66
2023-01-07T11:48:52.932Z,99351.72
2023-01-07T11:51:24.781Z,99354.47
2023-01-07T11:53:58.266Z,99349.91
2023-01-07T11:56:30.616Z,99331.72
2023-01-07T11:59:28.910Z,99352.63
2023-01-07T12:02:02.351Z,99350.44
2023-01-07T12:04:34.099Z,99339.59
2023-01-07T12:07:07.000Z,99327.72
2023-01-07T12:09:40.055Z,99334.56
2023-01-07T12:12:31.757Z,99329.34
2023-01-07T12:15:03.843Z,99329.59
2023-01-07T12:17:39.290Z,99323.78
2023-01-07T12:20:43.292Z,99316.00
2023-01-07T12:23:28.578Z,99301.53
2023-01-07T12:26:08.080Z,99297.78
2023-01-07T12:28:55.308Z,99299.03
2023-01-07T12:31:34.037Z,99297.97
2023-01-07T12:34:22.236Z,99291.91
2023-01-07T12:37:01.814Z,99286.44
2023-01-07T12:39:38.181Z,99280.91
2023-01-07T12:42:15.977Z,99269.44
2023-01-07T12:44:50.160Z,99268.34
2023-01-07T12:47:32.431Z,99265.06
2023-01-07T12:50:14.672Z,99258.97
2023-01-07T12:52:49.295Z,99254.63
2023-01-07T12:55:23.107Z,99252.13
2023-01-07T12:58:03.155Z,99257.91
2023-01-07T13:00:37.636Z,99240.06
2023-01-07T13:03:19.146Z,99249.34
2023-01-07T13:05:57.338Z,99247.72
2023-01-07T13:08:37.987Z,99242.53
2023-01-07T13:11:17.736Z,99252.44
2023-01-07T13:13:51.837Z,99236.81
2023-01-07T13:16:21.542Z,99242.50
2023-01-07T13:18:51.126Z,99239.53
2023-01-07T13:21:24.659Z,99245.66
2023-01-07T13:24:12.172Z,99241.38
2023-01-07T13:26:51.799Z,99234.75
2023-01-07T13:29:45.729Z,99228.56
2023-01-07T13:32:31.847Z,99238.06
2023-01-07T13:35:22.034Z,99227.13
2023-01-07T13:38:07.062Z,99232.81
2023-01-07T13:41:03.857Z,99227.34
2023-01-07T13:43:42.088Z,99225.00
2023-01-07T13:46:16.901Z,99223.88
2023-01-07T13:48:50.739Z,99224.13
2023-01-07T13:51:29.687Z,99225.91
2023-01-07T13:54:02.152Z,99225.09
2023-01-07T13:56:35.192Z,99222.22
2023-01-07T13:59:05.155Z,99223.09
2023-01-07T14:01:36.348Z,99223.00
2023-01-07T14:04:37.960Z,99225.44
2023-01-07T14:07:07.600Z,99211.44
2023-01-07T14:09:41.725Z,99210.59
2023-01-07T14:12:33.240Z,99209.03
2023-01-07T14:15:32.890Z,99200.34
2023-01-07T14:18:31.274Z,99204.00
2023-01-07T14:21:13.063Z,99208.50
2023-01-07T14:23:53.183Z,99199.19
2023-01-07T14:26:31.768Z,99201.94
2023-01-07T14:29:26.922Z,99193.72
2023-01-07T14:32:21.146Z,99192.63
2023-01-07T14:34:56.871Z,99191.03
2023-01-07T14:37:34.440Z,99188.22
2023-01-07T14:40:24.241Z,99189.78
2023-01-07T14:42:57.209Z,99182.69
2023-01-07T14:45:59.441Z,99190.66
2023-01-07T14:48:37.375Z,99180.25
2023-01-07T14:51:34.774Z,99184.31
2023-01-07T14:54:22.687Z,99188.06
2023-01-07T14:57:07.320Z,99190.72
2023-01-07T15:00:04.450Z,99168.31
2023-01-07T15:02:52.945Z,99177.88
2023-01-07T15:05:46.393Z,99167.28
2023-01-07T15:08:34.226Z,99165.34
2023-01-07T15:11:19.828Z,99158.50
2023-01-07T15:14:10.570Z,99152.81
2023-01-07T15:16:43.474Z,99151.25
2023-01-07T15:19:13.181Z,99152.47
2023-01-07T15:21:56.492Z,99142.47
2023-01-07T15:24:36.657Z,99134.53
2023-01-07T15:27:12.592Z,99132.03
2023-01-07T15:29:52.068Z,99128.84
2023-01-07T15:32:35.362Z,99134.56
2023-01-07T15:35:12.101Z,99126.56
2023-01-07T15:37:48.632Z,99120.78
2023-01-07T15:40:20.378Z,99125.69
2023-01-07T15:42:52.513Z,99120.56
2023-01-07T15:45:24.885Z,99110.78
2023-01-07T15:48:08.015Z,99106.16
2023-01-07T15:50:39.471Z,99092.34
2023-01-07T15:53:22.157Z,99094.22
2023-01-07T15:55:58.553Z,99094.25
2023-01-07T15:58:37.197Z,99100.38
2023-01-07T16:01:07.547Z,99087.50
2023-01-07T16:03:42.113Z,99092.13
2023-01-07T16:06:39.428Z,99085.59
2023-01-07T16:09:20.024Z,99074.47
2023-01-07T16:11:50.090Z,99080.25
2023-01-07T16:14:21.706Z,99077.75
2023-01-07T16:16:51.684Z,99080.09
2023-01-07T16:19:24.121Z,99076.28
2023-01-07T16:21:57.284Z,99062.81
2023-01-07T16:24:26.927Z,99054.41
2023-01-07T16:27:04.947Z,99046.69
2023-01-07T16:29:39.785Z,99037.97
2023-01-07T16:32:10.436Z,99036.94
2023-01-07T16:35:03.120Z,99038.91
2023-01-07T16:37:33.314Z,99048.84
2023-01-07T16:40:04.811Z,99042.81
2023-01-07T16:42:34.641Z,99034.53
2023-01-07T16:45:07.486Z,99036.72
2023-01-07T16:47:37.252Z,99044.38
2023-01-07T16:50:37.224Z,99030.19
2023-01-07T16:53:22.664Z,99028.34
2023-01-07T16:55:54.205Z,99021.94
2023-01-07T16:58:31.761Z,99024.00
2023-01-07T17:01:04.889Z,99021.13
2023-01-07T17:03:45.699Z,99013.34
2023-01-07T17:06:26.020Z,99001.63
2023-01-07T17:08:58.064Z,99000.78
2023-01-07T17:11:35.765Z,99002.56
2023-01-07T17:14:05.496Z,98995.56
2023-01-07T17:16:36.161Z,98974.47
2023-01-07T17:19:27.360Z,98986.06
2023-01-07T17:21:59.993Z,98967.91
2023-01-07T17:24:52.322Z,98980.72
2023-01-07T17:27:29.448Z,98973.84
2023-01-07T17:29:59.834Z,98966.41
2023-01-07T17:32:29.773Z,98972.44
2023-01-07T17:35:03.577Z,98957.56
2023-01-07T17:37:37.663Z,98956.56
2023-01-07T17:40:08.094Z,98950.31
2023-01-07T17:42:50.326Z,98949.63
2023-01-07T17:45:21.724Z,98953.63
2023-01-07T17:47:52.912Z,98951.38
2023-01-07T17:50:23.381Z,98951.56
2023-01-07T17:52:57.347Z,98951.66
2023-01-07T17:55:30.402Z,98960.19
2023-01-07T17:58:00.226Z,98942.94
2023-01-07T18:00:33.225Z,98955.97
2023-01-07T18:03:02.877Z,98948.53
2023-01-07T18:05:32.430Z,98947.22
2023-01-07T18:08:04.653Z,98951.53
2023-01-07T18:10:55.630Z,98948.66
2023-01-07T18:13:22.642Z,98945.88
2023-01-07T18:15:52.303Z,98941.91
2023-01-07T18:18:21.838Z,98942.19
2023-01-07T18:20:51.392Z,98939.94
2023-01-07T18:23:24.009Z,98937.47
2023-01-07T18:25:55.037Z,98936.81
2023-01-07T18:28:24.567Z,98927.66
2023-01-07T18:30:54.300Z,98926.59
2023-01-07T18:33:24.008Z,98929.50
2023-01-07T18:35:53.567Z,98916.81
2023-01-07T18:38:26.343Z,98915.84
2023-01-07T18:40:56.943Z,98912.38
2023-01-07T18:43:26.512Z,98911.97
2023-01-07T18:45:56.148Z,98904.47
2023-01-07T18:48:25.955Z,98909.25
2023-01-07T18:50:56.687Z,98895.56
2023-01-07T18:53:29.303Z,98901.44
2023-01-07T18:56:03.740Z,98899.41
2023-01-07T18:58:33.465Z,98899.47
2023-01-07T19:01:05.380Z,98897.56
2023-01-07T19:03:35.297Z,98889.78
2023-01-07T19:06:08.584Z,98889.28
2023-01-07T19:08:41.690Z,98888.19
2023-01-07T19:11:12.663Z,98884.75
2023-01-07T19:13:42.424Z,98883.13
2023-01-07T19:16:14.470Z,98878.78
2023-01-07T19:18:44.100Z,98887.19
2023-01-07T19:21:15.232Z,98882.78
2023-01-07T19:23:49.725Z,98894.72
2023-01-07T19:26:19.267Z,98889.59
2023-01-07T19:28:49.003Z,98889.06
2023-01-07T19:31:18.635Z,98890.88
2023-01-07T19:33:48.252Z,98895.78
2023-01-07T19:36:18.699Z,98879.19
2023-01-07T19:38:51.710Z,98863.88
2023-01-07T19:41:23.301Z,98873.19
2023-01-07T19:43:54.797Z,98866.13
2023-01-07T19:46:25.337Z,98869.00
2023-01-07T19:48:55.681Z,98856.94
2023-01-07T19:51:25.276Z,98864.88
2023-01-07T19:53:57.554Z,98858.38
2023-01-07T19:56:27.222Z,98848.06
2023-01-07T19:58:57.143Z,98849.13
2023-01-07T20:01:28.761Z,98844.72
2023-01-07T20:04:00.003Z,98828.75
2023-01-07T20:06:34.644Z,98821.09
2023-01-07T20:09:10.885Z,98818.19
2023-01-07T20:11:42.548Z,98814.81
2023-01-07T20:14:12.146Z,98812.56
2023-01-07T20:16:42.880Z,98818.50
2023-01-07T20:19:13.891Z,98804.59
2023-01-07T20:21:43.763Z,98816.31
2023-01-07T20:24:17.393Z,98807.16
2023-01-07T20:26:47.771Z,98816.41
2023-01-07T20:29:17.361Z,98807.94
2023-01-07T20:31:47.146Z,98810.44
2023-01-07T20:34:16.834Z,98810.28
2023-01-07T20:36:46.354Z,98811.69
2023-01-07T20:39:18.544Z,98807.66
2023-01-07T20:41:48.065Z,98809.25
2023-01-07T20:44:17.657Z,98801.13
2023-01-07T20:46:47.180Z,98801.97
2023-01-07T20:49:16.876Z,98799.22
2023-01-07T20:51:46.763Z,98776.75
2023-01-07T20:54:18.856Z,98783.31
2023-01-07T20:56:48.449Z,98778.97
2023-01-07T20:59:18.474Z,98783.88
2023-01-07T21:01:48.218Z,98786.13
2023-01-07T21:04:17.883Z,98786.13
2023-01-07T21:06:47.575Z,98784.75
2023-01-07T21:09:19.938Z,98792.13
2023-01-07T21:11:49.997Z,98786.66
2023-01-07T21:14:19.554Z,98785.50
2023-01-07T21:16:49.163Z,98775.66
2023-01-07T21:19:19.317Z,98778.97
2023-01-07T21:21:50.680Z,98780.34
2023-01-07T21:24:22.793Z,98784.38
2023-01-07T21:26:52.458Z,98778.88
2023-01-07T21:29:22.023Z,98781.88
2023-01-07T21:31:53.615Z,98778.53
2023-01-07T21:34:23.256Z,98781.72
2023-01-07T21:36:52.789Z,98784.00
2023-01-07T21:39:24.937Z,98785.72
2023-01-07T21:41:54.518Z,98782.44
2023-01-07T21:44:24.040Z,98779.84
2023-01-07T21:46:53.687Z,98784.94
2023-01-07T21:49:23.232Z,98799.50
2023-01-07T21:51:52.844Z,98798.94
2023-01-07T21:54:24.993Z,98805.78
2023-01-07T21:56:54.707Z,98794.69
2023-01-07T21:59:24.311Z,98787.50
2023-01-07T22:01:54.089Z,98788.16
2023-01-07T22:04:23.762Z,98786.78
2023-01-07T22:06:53.389Z,98783.84
2023-01-07T22:09:25.980Z,98786.56
2023-01-07T22:11:55.548Z,98786.56
2023-01-07T22:14:26.281Z,98784.38
2023-01-07T22:16:55.803Z,98776.53
2023-01-07T22:19:25.937Z,98765.84
2023-01-07T22:21:55.484Z,98755.50
2023-01-07T22:24:27.710Z,98743.50
2023-01-07T22:26:57.485Z,98735.56
2023-01-07T22:29:27.619Z,98727.81
2023-01-07T22:31:57.332Z,98712.88
2023-01-07T22:34:26.986Z,98706.03
2023-01-07T22:37:04.699Z,98700.59
2023-01-07T22:39:40.841Z,98712.91
2023-01-07T22:42:13.378Z,98710.44
2023-01-07T22:44:46.473Z,98733.13
2023-01-07T22:47:20.422Z,98733.13
2023-01-07T22:49:51.622Z,98730.38
2023-01-07T22:52:21.311Z,98717.28
2023-01-07T22:54:53.462Z,98712.34
2023-01-07T22:57:23.603Z,98708.00
2023-01-07T22:59:53.141Z,98705.56
2023-01-07T23:02:22.685Z,98696.53
2023-01-07T23:04:52.583Z,98684.53
2023-01-07T23:07:22.362Z,98684.53
2023-01-07T23:09:54.474Z,98679.88
2023-01-07T23:12:24.036Z,98682.84
2023-01-07T23:14:53.553Z,98676.03
2023-01-07T23:17:23.155Z,98682.81
2023-01-07T23:19:52.723Z,98681.22
2023-01-07T23:22:22.330Z,98680.91
2023-01-07T23:24:54.460Z,98675.22
2023-01-07T23:27:24.053Z,98680.16
2023-01-07T23:29:53.820Z,98677.38
2023-01-07T23:32:23.347Z,98676.31
2023-01-07T23:34:52.955Z,98667.03
2023-01-07T23:37:22.534Z,98671.69
2023-01-07T23:39:54.632Z,98653.38
2023-01-07T23:42:24.661Z,98656.69
2023-01-07T23:44:54.178Z,98649.59
2023-01-07T23:47:23.713Z,98649.53
2023-01-07T23:49:53.518Z,98647.09
2023-01-07T23:52:23.335Z,98628.81
2023-01-07T23:54:55.492Z,98626.06
2023-01-07T23:57:25.052Z,98605.94
2023-01-07T23:59:54.568Z,98613.81
